TS Korea — A8OP7 — position and weather

sailwx.info

Track history (hours):
 
Tides and Currents Weather Stations Pressure Air Temp Water Temp Dewpoint Dewpoint Depression Visibility Wind Speed Wind Dir Waves Ship Positions

TS Korea

Last reported at 2018-Feb-22 19:26 UTC. Time now 2018-Feb-23 03:14 UTC.
Position N 50°53' W 005°52'.

Length 209 m; draft 10.5 m.

Type: Ship (hazmat cat A). MMSI: 636016439.

Date/timePositionNaut miles runAvg speedWind from/ knotsBaromVisibWave heightAir tempDewpointWater temp
2018-Feb-22 19:26N 50°53' W 005°52'1413.9
2018-Feb-22 18:27N 50°39' W 005°53'1414.0
2018-Feb-22 17:26N 50°25' W 005°53'4211.4
2018-Feb-22 13:47N 49°54' W 005°08'2614.0
2018-Feb-22 11:56N 49°54' W 004°28'914.2
2018-Feb-22 11:19N 49°54' W 004°15'1013.8
2018-Feb-22 10:37N 49°56' W 003°60'513.4
2018-Feb-22 10:15N 49°57' W 003°52'513.3
2018-Feb-22 09:53N 49°57' W 003°45'513.1
2018-Feb-22 09:30N 49°58' W 003°37'713.1
2018-Feb-22 09:00N 49°58' W 003°27'712.9
2018-Feb-22 08:26N 49°59' W 003°16'613.4
2018-Feb-22 08:00N 49°59' W 003°07'713.5
2018-Feb-22 07:30N 50°00' W 002°56'713.8
2018-Feb-22 07:00N 50°02' W 002°46'4215.2
2018-Feb-22 04:16N 50°13' W 001°43'915.3
2018-Feb-22 03:41N 50°15' W 001°29'4214.6
2018-Feb-22 00:47N 50°26' W 000°25'413.5
2018-Feb-22 00:30N 50°27' W 000°19'713.5
2018-Feb-22 00:00N 50°29' W 000°09'713.3
2018-Feb-21 23:30N 50°30' E 000°01'713.5
2018-Feb-21 23:01N 50°31' E 000°11'713.6
2018-Feb-21 22:29N 50°33' E 000°22'713.6
2018-Feb-21 22:01N 50°35' E 000°32'713.5
2018-Feb-21 21:31N 50°39' E 000°41'713.7
2018-Feb-21 21:00N 50°43' E 000°49'714.4
2018-Feb-21 20:30N 50°48' E 000°58'917.1
2018-Feb-21 20:00N 50°53' E 001°09'815.8
2018-Feb-21 19:30N 50°59' E 001°18'815.4
2018-Feb-21 19:00N 51°04' E 001°27'714.4
2018-Feb-21 18:30N 51°08' E 001°35'713.9
2018-Feb-21 18:00N 51°13' E 001°44'714.1
2018-Feb-21 17:30N 51°19' E 001°50'714.0
2018-Feb-21 17:01N 51°24' E 001°57'612.4
2018-Feb-21 16:30N 51°23' E 002°07'814.5
2018-Feb-21 15:59N 51°21' E 002°19'713.9
2018-Feb-21 15:30N 51°23' E 002°29'714.3
2018-Feb-21 14:59N 51°23' E 002°41'714.1
2018-Feb-21 14:30N 51°22' E 002°52'917.2
2018-Feb-21 14:01N 51°24' E 003°05'917.3
2018-Feb-21 13:30N 51°24' E 003°19'917.3
2018-Feb-21 13:00N 51°26' E 003°33'613.0
2018-Feb-21 12:31N 51°24' E 003°43'714.1
2018-Feb-21 12:01N 51°21' E 003°53'712.9
2018-Feb-21 11:30N 51°25' E 004°02'713.1
2018-Feb-21 11:00N 51°24' E 004°12'4 8.5
2018-Feb-21 10:30N 51°21' E 004°17'0 0.0
2018-Feb-21 09:55N 51°21' E 004°17'0 0.0
2018-Feb-21 09:29N 51°21' E 004°17'1 1.6
2018-Feb-21 09:00N 51°20' E 004°18'1 1.9
2018-Feb-21 08:30N 51°20' E 004°19'1 0.8
2018-Feb-21 07:40N 51°20' E 004°20'0 0.0
2018-Feb-21 06:49N 51°20' E 004°20'0 0.0
2018-Feb-21 06:25N 51°20' E 004°20'0 0.0
2018-Feb-21 05:58N 51°20' E 004°20'0 0.0
2018-Feb-21 05:22N 51°20' E 004°20'0 0.0
2018-Feb-21 04:52N 51°20' E 004°20'0 0.0
2018-Feb-21 04:28N 51°20' E 004°20'0 0.0
2018-Feb-21 03:58N 51°20' E 004°20'0 0.0
2018-Feb-21 03:28N 51°20' E 004°20'0 0.0
2018-Feb-21 01:49N 51°20' E 004°20'0 0.0
2018-Feb-21 00:16N 51°20' E 004°20'0 0.0
2018-Feb-20 23:52N 51°20' E 004°20'0 0.0
2018-Feb-20 23:28N 51°20' E 004°20'0 0.0
2018-Feb-20 22:58N 51°20' E 004°20'0 0.0
2018-Feb-20 22:22N 51°20' E 004°20'0 0.0
2018-Feb-20 21:55N 51°20' E 004°20'0 0.0
2018-Feb-20 20:46N 51°20' E 004°20'0 0.0
2018-Feb-20 20:28N 51°20' E 004°20'0 0.0
2018-Feb-20 19:46N 51°20' E 004°20'0 0.0
2018-Feb-20 19:07N 51°20' E 004°20'0 0.0
2018-Feb-20 17:16N 51°20' E 004°20'0 0.0
2018-Feb-20 16:19N 51°20' E 004°20'0 0.0
2018-Feb-20 10:37N 51°20' E 004°20'0 0.0
2018-Feb-20 08:07N 51°20' E 004°20'0 0.0
2018-Feb-20 07:43N 51°20' E 004°20'0 0.0
2018-Feb-20 07:25N 51°20' E 004°20'0 0.0
2018-Feb-20 06:55N 51°20' E 004°20'0 0.0
2018-Feb-20 05:16N 51°20' E 004°20'0 0.0
2018-Feb-20 04:55N 51°20' E 004°20'0 0.0
2018-Feb-20 03:46N 51°20' E 004°20'0 0.0
2018-Feb-20 03:16N 51°20' E 004°20'0 0.0
2018-Feb-20 02:55N 51°20' E 004°20'0 0.0
2018-Feb-20 02:28N 51°20' E 004°20'0 0.0
2018-Feb-20 01:56N 51°20' E 004°20'1 2.1
2018-Feb-20 01:30N 51°19' E 004°19'2 3.4
2018-Feb-20 01:00N 51°21' E 004°17'0 0.0
2018-Feb-20 00:30N 51°21' E 004°17'0 0.0
2018-Feb-20 00:00N 51°21' E 004°17'1 1.6
2018-Feb-19 23:30N 51°21' E 004°16'4 8.7
2018-Feb-19 23:01N 51°24' E 004°11'611.2
2018-Feb-19 22:30N 51°24' E 004°02'5 9.2
2018-Feb-19 22:00N 51°22' E 003°55'713.5
2018-Feb-19 21:30N 51°22' E 003°45'612.3
2018-Feb-19 21:01N 51°26' E 003°37'510.0
2018-Feb-19 20:30N 51°25' E 003°30'815.5
2018-Feb-19 20:00N 51°25' E 003°17'816.2
2018-Feb-19 19:30N 51°24' E 003°04'917.0
2018-Feb-19 18:59N 51°22' E 002°51'713.9
2018-Feb-19 18:29N 51°22' E 002°39'917.2
2018-Feb-19 17:59N 51°21' E 002°25'715.6
2018-Feb-19 17:30N 51°17' E 002°16'713.9
2018-Feb-19 17:00N 51°14' E 002°05'714.0
2018-Feb-19 16:28N 51°10' E 001°55'715.3
2018-Feb-19 16:00N 51°07' E 001°45'714.7
2018-Feb-19 15:30N 51°02' E 001°37'815.1
2018-Feb-19 15:00N 50°56' E 001°29'7214.0
2018-Feb-19 09:53N 50°17' W 000°06'3416.1
2018-Feb-19 07:46N 50°08' W 000°57'415.5
2018-Feb-19 07:30N 50°07' W 001°03'714.8
2018-Feb-19 07:00N 50°05' W 001°15'714.3
2018-Feb-19 06:30N 50°04' W 001°25'714.2
2018-Feb-19 06:00N 50°02' W 001°36'713.4
2018-Feb-19 05:30N 50°00' W 001°46'612.8
2018-Feb-19 05:00N 49°59' W 001°56'612.2
2018-Feb-19 04:30N 49°58' W 002°05'1511.6
2018-Feb-19 03:15N 49°53' W 002°27'  
Track history (hours):
 
Tides and Currents Weather Stations Pressure Air Temp Water Temp Dewpoint Dewpoint Depression Visibility Wind Speed Wind Dir Waves Ship Positions

TS Korea

Last reported at 2018-Feb-22 19:26 UTC. Time now 2018-Feb-23 03:14 UTC.
Position N 50°53' W 005°52'.

Length 209 m; draft 10.5 m.

Type: Ship (hazmat cat A). MMSI: 636016439.

Date/timePositionNaut miles runAvg speedWind from/ knotsBaromVisibWave heightAir tempDewpointWater temp
2018-Feb-22 19:26N 50°53' W 005°52'1413.9
2018-Feb-22 18:27N 50°39' W 005°53'1414.0
2018-Feb-22 17:26N 50°25' W 005°53'4211.4
2018-Feb-22 13:47N 49°54' W 005°08'2614.0
2018-Feb-22 11:56N 49°54' W 004°28'914.2
2018-Feb-22 11:19N 49°54' W 004°15'1013.8
2018-Feb-22 10:37N 49°56' W 003°60'513.4
2018-Feb-22 10:15N 49°57' W 003°52'513.3
2018-Feb-22 09:53N 49°57' W 003°45'513.1
2018-Feb-22 09:30N 49°58' W 003°37'713.1
2018-Feb-22 09:00N 49°58' W 003°27'712.9
2018-Feb-22 08:26N 49°59' W 003°16'613.4
2018-Feb-22 08:00N 49°59' W 003°07'713.5
2018-Feb-22 07:30N 50°00' W 002°56'713.8
2018-Feb-22 07:00N 50°02' W 002°46'4215.2
2018-Feb-22 04:16N 50°13' W 001°43'915.3
2018-Feb-22 03:41N 50°15' W 001°29'4214.6
2018-Feb-22 00:47N 50°26' W 000°25'413.5
2018-Feb-22 00:30N 50°27' W 000°19'713.5
2018-Feb-22 00:00N 50°29' W 000°09'713.3
2018-Feb-21 23:30N 50°30' E 000°01'713.5
2018-Feb-21 23:01N 50°31' E 000°11'713.6
2018-Feb-21 22:29N 50°33' E 000°22'713.6
2018-Feb-21 22:01N 50°35' E 000°32'713.5
2018-Feb-21 21:31N 50°39' E 000°41'713.7
2018-Feb-21 21:00N 50°43' E 000°49'714.4
2018-Feb-21 20:30N 50°48' E 000°58'917.1
2018-Feb-21 20:00N 50°53' E 001°09'815.8
2018-Feb-21 19:30N 50°59' E 001°18'815.4
2018-Feb-21 19:00N 51°04' E 001°27'714.4
2018-Feb-21 18:30N 51°08' E 001°35'713.9
2018-Feb-21 18:00N 51°13' E 001°44'714.1
2018-Feb-21 17:30N 51°19' E 001°50'714.0
2018-Feb-21 17:01N 51°24' E 001°57'612.4
2018-Feb-21 16:30N 51°23' E 002°07'814.5
2018-Feb-21 15:59N 51°21' E 002°19'713.9
2018-Feb-21 15:30N 51°23' E 002°29'714.3
2018-Feb-21 14:59N 51°23' E 002°41'714.1
2018-Feb-21 14:30N 51°22' E 002°52'917.2
2018-Feb-21 14:01N 51°24' E 003°05'917.3
2018-Feb-21 13:30N 51°24' E 003°19'917.3
2018-Feb-21 13:00N 51°26' E 003°33'613.0
2018-Feb-21 12:31N 51°24' E 003°43'714.1
2018-Feb-21 12:01N 51°21' E 003°53'712.9
2018-Feb-21 11:30N 51°25' E 004°02'713.1
2018-Feb-21 11:00N 51°24' E 004°12'4 8.5
2018-Feb-21 10:30N 51°21' E 004°17'0 0.0
2018-Feb-21 09:55N 51°21' E 004°17'0 0.0
2018-Feb-21 09:29N 51°21' E 004°17'1 1.6
2018-Feb-21 09:00N 51°20' E 004°18'1 1.9
2018-Feb-21 08:30N 51°20' E 004°19'1 0.8
2018-Feb-21 07:40N 51°20' E 004°20'0 0.0
2018-Feb-21 06:49N 51°20' E 004°20'0 0.0
2018-Feb-21 06:25N 51°20' E 004°20'0 0.0
2018-Feb-21 05:58N 51°20' E 004°20'0 0.0
2018-Feb-21 05:22N 51°20' E 004°20'0 0.0
2018-Feb-21 04:52N 51°20' E 004°20'0 0.0
2018-Feb-21 04:28N 51°20' E 004°20'0 0.0
2018-Feb-21 03:58N 51°20' E 004°20'0 0.0
2018-Feb-21 03:28N 51°20' E 004°20'0 0.0
2018-Feb-21 01:49N 51°20' E 004°20'0 0.0
2018-Feb-21 00:16N 51°20' E 004°20'0 0.0
2018-Feb-20 23:52N 51°20' E 004°20'0 0.0
2018-Feb-20 23:28N 51°20' E 004°20'0 0.0
2018-Feb-20 22:58N 51°20' E 004°20'0 0.0
2018-Feb-20 22:22N 51°20' E 004°20'0 0.0
2018-Feb-20 21:55N 51°20' E 004°20'0 0.0
2018-Feb-20 20:46N 51°20' E 004°20'0 0.0
2018-Feb-20 20:28N 51°20' E 004°20'0 0.0
2018-Feb-20 19:46N 51°20' E 004°20'0 0.0
2018-Feb-20 19:07N 51°20' E 004°20'0 0.0
2018-Feb-20 17:16N 51°20' E 004°20'0 0.0
2018-Feb-20 16:19N 51°20' E 004°20'0 0.0
2018-Feb-20 10:37N 51°20' E 004°20'0 0.0
2018-Feb-20 08:07N 51°20' E 004°20'0 0.0
2018-Feb-20 07:43N 51°20' E 004°20'0 0.0
2018-Feb-20 07:25N 51°20' E 004°20'0 0.0
2018-Feb-20 06:55N 51°20' E 004°20'0 0.0
2018-Feb-20 05:16N 51°20' E 004°20'0 0.0
2018-Feb-20 04:55N 51°20' E 004°20'0 0.0
2018-Feb-20 03:46N 51°20' E 004°20'0 0.0
2018-Feb-20 03:16N 51°20' E 004°20'0 0.0
2018-Feb-20 02:55N 51°20' E 004°20'0 0.0
2018-Feb-20 02:28N 51°20' E 004°20'0 0.0
2018-Feb-20 01:56N 51°20' E 004°20'1 2.1
2018-Feb-20 01:30N 51°19' E 004°19'2 3.4
2018-Feb-20 01:00N 51°21' E 004°17'0 0.0
2018-Feb-20 00:30N 51°21' E 004°17'0 0.0
2018-Feb-20 00:00N 51°21' E 004°17'1 1.6
2018-Feb-19 23:30N 51°21' E 004°16'4 8.7
2018-Feb-19 23:01N 51°24' E 004°11'611.2
2018-Feb-19 22:30N 51°24' E 004°02'5 9.2
2018-Feb-19 22:00N 51°22' E 003°55'713.5
2018-Feb-19 21:30N 51°22' E 003°45'612.3
2018-Feb-19 21:01N 51°26' E 003°37'510.0
2018-Feb-19 20:30N 51°25' E 003°30'815.5
2018-Feb-19 20:00N 51°25' E 003°17'816.2
2018-Feb-19 19:30N 51°24' E 003°04'917.0
2018-Feb-19 18:59N 51°22' E 002°51'713.9
2018-Feb-19 18:29N 51°22' E 002°39'917.2
2018-Feb-19 17:59N 51°21' E 002°25'715.6
2018-Feb-19 17:30N 51°17' E 002°16'713.9
2018-Feb-19 17:00N 51°14' E 002°05'714.0
2018-Feb-19 16:28N 51°10' E 001°55'715.3
2018-Feb-19 16:00N 51°07' E 001°45'714.7
2018-Feb-19 15:30N 51°02' E 001°37'815.1
2018-Feb-19 15:00N 50°56' E 001°29'7214.0
2018-Feb-19 09:53N 50°17' W 000°06'3416.1
2018-Feb-19 07:46N 50°08' W 000°57'415.5
2018-Feb-19 07:30N 50°07' W 001°03'714.8
2018-Feb-19 07:00N 50°05' W 001°15'714.3
2018-Feb-19 06:30N 50°04' W 001°25'714.2
2018-Feb-19 06:00N 50°02' W 001°36'713.4
2018-Feb-19 05:30N 50°00' W 001°46'612.8
2018-Feb-19 05:00N 49°59' W 001°56'612.2
2018-Feb-19 04:30N 49°58' W 002°05'1511.6
2018-Feb-19 03:15N 49°53' W 002°27'  

Dump ship's entire track history